createdAt,value
2023-03-07T00:01:30.825Z,52.37
2023-03-07T00:03:57.893Z,52.56
2023-03-07T00:06:24.858Z,52.45
2023-03-07T00:08:52.467Z,52.20
2023-03-07T00:11:19.189Z,52.39
2023-03-07T00:13:45.866Z,51.95
2023-03-07T00:16:16.640Z,52.71
2023-03-07T00:18:43.396Z,52.68
2023-03-07T00:21:11.640Z,52.71
2023-03-07T00:23:39.456Z,52.73
2023-03-07T00:26:07.547Z,52.47
2023-03-07T00:28:34.284Z,52.70
2023-03-07T00:31:02.178Z,53.10
2023-03-07T00:33:28.868Z,53.11
2023-03-07T00:35:56.747Z,53.36
2023-03-07T00:38:23.507Z,52.41
2023-03-07T00:41:06.632Z,52.58
2023-03-07T00:43:33.615Z,52.82
2023-03-07T00:46:00.400Z,52.79
2023-03-07T00:48:27.378Z,52.51
2023-03-07T00:50:54.013Z,52.53
2023-03-07T00:53:20.676Z,52.03
2023-03-07T00:56:06.673Z,52.89
2023-03-07T00:58:34.932Z,53.80
2023-03-07T01:01:01.926Z,54.84
2023-03-07T01:03:29.458Z,55.01
2023-03-07T01:05:56.197Z,54.95
2023-03-07T01:08:22.900Z,55.41
2023-03-07T01:10:49.676Z,56.10
2023-03-07T01:13:16.814Z,56.41
2023-03-07T01:15:43.491Z,58.01
2023-03-07T01:18:10.173Z,56.83
2023-03-07T01:20:37.636Z,56.86
2023-03-07T01:23:04.555Z,55.81
2023-03-07T01:25:31.188Z,54.81
2023-03-07T01:27:57.832Z,54.77
2023-03-07T01:30:25.712Z,54.30
2023-03-07T01:32:58.421Z,54.78
2023-03-07T01:35:25.853Z,55.19
2023-03-07T01:37:53.445Z,55.51
2023-03-07T01:40:22.036Z,55.23
2023-03-07T01:42:48.781Z,54.70
2023-03-07T01:45:15.312Z,55.25
2023-03-07T01:47:42.006Z,54.24
2023-03-07T01:50:13.648Z,54.29
2023-03-07T01:52:47.361Z,54.55
2023-03-07T01:55:16.232Z,53.06
2023-03-07T01:57:43.291Z,54.87
2023-03-07T02:00:11.769Z,54.36
2023-03-07T02:02:39.146Z,53.89
2023-03-07T02:05:23.573Z,54.07
2023-03-07T02:07:50.470Z,54.62
2023-03-07T02:10:19.259Z,54.63
2023-03-07T02:12:45.922Z,55.11
2023-03-07T02:15:13.088Z,55.57
2023-03-07T02:17:42.904Z,55.06
2023-03-07T02:21:00.477Z,54.76
2023-03-07T02:23:49.847Z,55.27
2023-03-07T02:26:46.556Z,53.86
2023-03-07T02:29:13.326Z,53.83
2023-03-07T02:31:40.329Z,53.47
2023-03-07T02:34:18.707Z,53.42
2023-03-07T02:36:45.343Z,53.54
2023-03-07T02:39:12.006Z,54.59
2023-03-07T02:41:38.661Z,54.79
2023-03-07T02:44:05.333Z,54.66
2023-03-07T02:46:32.089Z,54.24
2023-03-07T02:49:01.191Z,54.16
2023-03-07T02:51:27.893Z,53.89
2023-03-07T02:53:54.575Z,54.85
2023-03-07T02:56:21.294Z,54.17
2023-03-07T02:58:47.957Z,54.36
2023-03-07T03:01:14.695Z,54.53
2023-03-07T03:03:41.376Z,54.36
2023-03-07T03:06:08.063Z,54.71
2023-03-07T03:08:34.757Z,55.20
2023-03-07T03:11:01.392Z,55.26
2023-03-07T03:13:28.330Z,55.68
2023-03-07T03:15:58.304Z,55.34
2023-03-07T03:18:27.648Z,55.60
2023-03-07T03:20:54.312Z,56.33
2023-03-07T03:23:20.991Z,56.19
2023-03-07T03:25:59.084Z,56.36
2023-03-07T03:28:25.756Z,56.45
2023-03-07T03:31:03.678Z,57.18
2023-03-07T03:33:30.379Z,57.23
2023-03-07T03:35:57.774Z,58.15
2023-03-07T03:38:24.549Z,58.12
2023-03-07T03:40:51.269Z,59.42
2023-03-07T03:43:18.187Z,59.58
2023-03-07T03:45:44.841Z,59.45
2023-03-07T03:48:11.496Z,59.27
2023-03-07T03:50:38.127Z,59.54
2023-03-07T03:53:04.800Z,59.98
2023-03-07T03:55:31.478Z,59.58
2023-03-07T03:57:58.740Z,60.40
2023-03-07T04:00:25.404Z,61.61
2023-03-07T04:02:52.181Z,60.89
2023-03-07T04:05:18.902Z,60.73
2023-03-07T04:07:45.552Z,61.02
2023-03-07T04:10:12.237Z,60.82
2023-03-07T04:12:38.904Z,60.37
2023-03-07T04:15:06.893Z,60.20
2023-03-07T04:17:33.987Z,60.38
2023-03-07T04:20:00.636Z,59.93
2023-03-07T04:22:27.296Z,58.97
2023-03-07T04:24:53.960Z,58.96
2023-03-07T04:27:20.594Z,59.13
2023-03-07T04:29:47.251Z,59.21
2023-03-07T04:32:13.960Z,59.27
2023-03-07T04:34:40.678Z,58.29
2023-03-07T04:37:07.352Z,59.54
2023-03-07T04:39:34.030Z,58.76
2023-03-07T04:42:01.337Z,58.83
2023-03-07T04:44:28.943Z,59.05
2023-03-07T04:46:55.645Z,59.01
2023-03-07T04:49:22.308Z,57.52
2023-03-07T04:51:48.974Z,57.85
2023-03-07T04:54:15.652Z,58.20
2023-03-07T04:56:42.397Z,58.71
2023-03-07T04:59:09.103Z,58.08
2023-03-07T05:01:36.161Z,58.63
2023-03-07T05:04:02.968Z,58.00
2023-03-07T05:06:30.288Z,58.18
2023-03-07T05:08:59.202Z,58.26
2023-03-07T05:11:26.459Z,57.86
2023-03-07T05:13:53.148Z,58.29
2023-03-07T05:16:19.848Z,58.19
2023-03-07T05:18:46.528Z,57.99
2023-03-07T05:21:13.199Z,58.46
2023-03-07T05:23:39.866Z,57.99
2023-03-07T05:26:06.524Z,58.55
2023-03-07T05:28:33.209Z,58.79
2023-03-07T05:30:59.860Z,58.47
2023-03-07T05:33:26.518Z,58.27
2023-03-07T05:35:53.186Z,58.76
2023-03-07T05:38:19.829Z,58.59
2023-03-07T05:40:46.532Z,58.77
2023-03-07T05:43:13.180Z,58.96
2023-03-07T05:45:39.855Z,58.62
2023-03-07T05:48:06.494Z,58.50
2023-03-07T05:50:33.156Z,58.78
2023-03-07T05:52:59.857Z,57.58
2023-03-07T05:55:26.647Z,56.76
2023-03-07T05:57:53.287Z,57.25
2023-03-07T06:00:20.356Z,57.72
2023-03-07T06:02:47.152Z,58.88
2023-03-07T06:05:13.868Z,58.53
2023-03-07T06:07:40.514Z,58.88
2023-03-07T06:10:07.634Z,57.38
2023-03-07T06:12:34.272Z,57.79
2023-03-07T06:15:00.910Z,58.37
2023-03-07T06:17:27.563Z,58.02
2023-03-07T06:19:54.211Z,58.24
2023-03-07T06:22:21.097Z,58.24
2023-03-07T06:24:47.757Z,58.11
2023-03-07T06:27:14.403Z,58.14
2023-03-07T06:29:41.150Z,58.04
2023-03-07T06:32:07.894Z,58.25
2023-03-07T06:34:34.567Z,59.38
2023-03-07T06:37:01.239Z,58.90
2023-03-07T06:39:29.662Z,59.35
2023-03-07T06:41:57.903Z,59.14
2023-03-07T06:44:25.746Z,59.00
2023-03-07T06:46:52.444Z,59.42
2023-03-07T06:49:19.110Z,58.93
2023-03-07T06:51:46.520Z,59.20
2023-03-07T06:54:14.120Z,58.48
2023-03-07T06:56:43.577Z,58.56
2023-03-07T06:59:12.306Z,58.21
2023-03-07T07:01:39.890Z,58.10
2023-03-07T07:04:07.492Z,57.53
2023-03-07T07:06:35.091Z,57.65
2023-03-07T07:09:01.961Z,57.87
2023-03-07T07:11:29.276Z,57.91
2023-03-07T07:13:56.872Z,57.21
2023-03-07T07:16:24.519Z,56.54
2023-03-07T07:18:52.108Z,55.69
2023-03-07T07:21:20.671Z,56.15
2023-03-07T07:23:48.269Z,55.57
2023-03-07T07:26:15.831Z,55.71
2023-03-07T07:28:43.426Z,56.69
2023-03-07T07:31:11.066Z,55.78
2023-03-07T07:33:37.808Z,55.45
2023-03-07T07:36:05.297Z,55.32
2023-03-07T07:38:33.816Z,54.86
2023-03-07T07:41:01.419Z,54.60
2023-03-07T07:43:29.013Z,54.44
2023-03-07T07:45:55.703Z,53.62
2023-03-07T07:48:22.530Z,53.72
2023-03-07T07:50:49.199Z,53.52
2023-03-07T07:53:15.890Z,52.29
2023-03-07T07:55:42.568Z,52.98
2023-03-07T07:58:09.272Z,52.19
2023-03-07T08:00:38.250Z,50.99
2023-03-07T08:03:06.120Z,50.41
2023-03-07T08:05:33.358Z,50.00
2023-03-07T08:08:00.973Z,50.02
2023-03-07T08:10:28.545Z,51.38
2023-03-07T08:12:56.155Z,50.86
2023-03-07T08:15:22.841Z,50.65
2023-03-07T08:17:49.661Z,50.65
2023-03-07T08:20:16.455Z,51.55
2023-03-07T08:22:43.550Z,52.37
2023-03-07T08:25:17.150Z,52.18
2023-03-07T08:27:44.748Z,52.37
2023-03-07T08:30:12.338Z,52.31
2023-03-07T08:32:39.999Z,51.56
2023-03-07T08:35:07.278Z,49.66
2023-03-07T08:37:35.121Z,52.29
2023-03-07T08:40:02.741Z,51.64
2023-03-07T08:42:30.113Z,50.18
2023-03-07T08:44:56.879Z,50.03
2023-03-07T08:47:23.565Z,47.15
2023-03-07T08:49:51.290Z,46.47
2023-03-07T08:52:18.736Z,43.83
2023-03-07T08:54:46.326Z,41.80
2023-03-07T08:57:14.930Z,38.43
2023-03-07T08:59:41.947Z,35.29
2023-03-07T09:02:12.892Z,33.38
2023-03-07T09:04:39.643Z,31.47
2023-03-07T09:07:06.326Z,30.94
2023-03-07T09:09:33.046Z,30.19
2023-03-07T09:11:59.748Z,29.11
2023-03-07T09:14:27.080Z,27.00
2023-03-07T09:16:54.700Z,26.57
2023-03-07T09:19:22.252Z,25.30
2023-03-07T09:21:49.875Z,25.07
2023-03-07T09:24:17.484Z,24.28
2023-03-07T09:26:45.056Z,23.51
2023-03-07T09:29:12.701Z,23.61
2023-03-07T09:31:41.270Z,25.62
2023-03-07T09:34:08.839Z,24.55
2023-03-07T09:36:36.432Z,26.92
2023-03-07T09:39:05.124Z,26.72
2023-03-07T09:41:52.101Z,27.40
2023-03-07T09:44:55.535Z,28.44
2023-03-07T09:47:58.797Z,32.01
2023-03-07T09:50:41.863Z,31.50
2023-03-07T09:53:13.416Z,33.46
2023-03-07T09:55:41.020Z,33.07
2023-03-07T09:58:10.598Z,34.17
2023-03-07T10:00:41.667Z,32.39
2023-03-07T10:03:40.984Z,33.76
2023-03-07T10:06:37.512Z,32.75
2023-03-07T10:09:05.652Z,33.16
2023-03-07T10:11:38.318Z,33.21
2023-03-07T10:14:38.673Z,33.57
2023-03-07T10:17:26.590Z,33.72
2023-03-07T10:19:54.657Z,33.96
2023-03-07T10:22:30.586Z,33.43
2023-03-07T10:25:25.356Z,32.14
2023-03-07T10:27:53.786Z,34.51
2023-03-07T10:30:20.741Z,33.74
2023-03-07T10:32:48.737Z,32.61
2023-03-07T10:35:20.600Z,34.05
2023-03-07T10:37:53.198Z,34.38
2023-03-07T10:40:36.871Z,34.62
2023-03-07T10:43:04.926Z,34.83
2023-03-07T10:45:34.075Z,34.72
2023-03-07T10:48:08.755Z,36.20
2023-03-07T10:50:42.151Z,35.47
2023-03-07T10:53:17.974Z,34.88
2023-03-07T10:55:45.570Z,34.90
2023-03-07T10:58:24.999Z,35.50
2023-03-07T11:01:15.434Z,35.38
2023-03-07T11:03:53.835Z,35.46
2023-03-07T11:06:33.108Z,35.90
2023-03-07T11:09:19.380Z,35.83
2023-03-07T11:11:57.324Z,36.81
2023-03-07T11:14:25.040Z,35.96
2023-03-07T11:16:54.714Z,35.75
2023-03-07T11:19:34.310Z,36.86
2023-03-07T11:22:02.910Z,37.06
2023-03-07T11:24:37.577Z,36.96
2023-03-07T11:27:05.135Z,36.65
2023-03-07T11:29:32.730Z,37.12
2023-03-07T11:32:06.712Z,37.20
2023-03-07T11:35:00.096Z,37.42
2023-03-07T11:37:28.279Z,36.90
2023-03-07T11:40:24.390Z,36.07
2023-03-07T11:43:24.106Z,37.13
2023-03-07T11:46:22.855Z,36.94
2023-03-07T11:49:01.451Z,37.15
2023-03-07T11:51:52.148Z,37.51
2023-03-07T11:54:34.499Z,37.73
2023-03-07T11:57:18.465Z,38.30
2023-03-07T11:59:49.095Z,37.45
2023-03-07T12:02:25.784Z,37.53
2023-03-07T12:05:14.397Z,37.25
2023-03-07T12:08:03.063Z,38.04
2023-03-07T12:10:48.723Z,36.79
2023-03-07T12:13:17.817Z,37.95
2023-03-07T12:15:54.019Z,38.29
2023-03-07T12:18:53.673Z,37.91
2023-03-07T12:21:47.816Z,37.66
2023-03-07T12:24:19.235Z,35.77
2023-03-07T12:26:51.603Z,36.70
2023-03-07T12:29:50.316Z,36.97
2023-03-07T12:32:20.793Z,37.90
2023-03-07T12:35:15.000Z,36.51
2023-03-07T12:37:45.233Z,36.92
2023-03-07T12:40:23.874Z,36.02
2023-03-07T12:42:55.485Z,37.30
2023-03-07T12:45:26.080Z,37.68
2023-03-07T12:48:02.729Z,38.36
2023-03-07T12:50:42.350Z,40.35
2023-03-07T12:53:28.045Z,39.53
2023-03-07T12:55:57.393Z,40.04
2023-03-07T12:58:54.551Z,38.13
2023-03-07T13:01:21.867Z,38.56
2023-03-07T13:04:12.752Z,36.62
2023-03-07T13:06:41.288Z,34.96
2023-03-07T13:09:08.000Z,37.53
2023-03-07T13:11:34.754Z,36.82
2023-03-07T13:14:03.131Z,37.57
2023-03-07T13:16:38.033Z,36.36
2023-03-07T13:19:35.618Z,36.35
2023-03-07T13:22:02.774Z,35.21
2023-03-07T13:24:36.724Z,34.19
2023-03-07T13:27:04.391Z,35.04
2023-03-07T13:30:08.159Z,33.68
2023-03-07T13:32:53.039Z,33.51
2023-03-07T13:35:28.731Z,34.50
2023-03-07T13:37:58.585Z,33.67
2023-03-07T13:40:25.187Z,33.26
2023-03-07T13:42:51.867Z,33.10
2023-03-07T13:45:46.207Z,33.74
2023-03-07T13:48:14.344Z,33.05
2023-03-07T13:50:43.863Z,32.83
2023-03-07T13:53:18.781Z,33.43
2023-03-07T13:55:47.026Z,33.74
2023-03-07T13:58:28.708Z,33.92
2023-03-07T14:00:57.929Z,32.74
2023-03-07T14:03:42.267Z,33.68
2023-03-07T14:06:29.952Z,34.13
2023-03-07T14:08:56.645Z,33.98
2023-03-07T14:11:27.046Z,34.24
2023-03-07T14:14:11.285Z,34.67
2023-03-07T14:16:45.151Z,34.14
2023-03-07T14:19:21.294Z,34.31
2023-03-07T14:21:51.882Z,35.42
2023-03-07T14:24:37.113Z,35.10
2023-03-07T14:27:04.853Z,34.68
2023-03-07T14:29:31.615Z,35.58
2023-03-07T14:31:59.150Z,35.32
2023-03-07T14:34:29.823Z,34.76
2023-03-07T14:37:06.880Z,34.67
2023-03-07T14:39:42.547Z,36.54
2023-03-07T14:42:24.339Z,35.72
2023-03-07T14:45:12.777Z,35.92
2023-03-07T14:47:45.320Z,35.52
2023-03-07T14:50:22.854Z,36.57
2023-03-07T14:52:49.943Z,36.17
2023-03-07T14:55:20.943Z,37.09
2023-03-07T14:57:48.934Z,37.76
2023-03-07T15:00:21.456Z,37.33
2023-03-07T15:02:50.894Z,37.02
2023-03-07T15:05:20.962Z,38.11
2023-03-07T15:07:48.185Z,37.28
2023-03-07T15:10:19.824Z,37.16
2023-03-07T15:12:49.282Z,37.19
2023-03-07T15:15:36.304Z,37.26
2023-03-07T15:18:19.517Z,38.31
2023-03-07T15:20:48.303Z,38.38
2023-03-07T15:23:23.272Z,39.74
2023-03-07T15:25:56.834Z,39.27
2023-03-07T15:28:24.412Z,39.46
2023-03-07T15:30:53.398Z,40.22
2023-03-07T15:33:20.259Z,41.52
2023-03-07T15:36:05.534Z,42.62
2023-03-07T15:38:32.254Z,42.83
2023-03-07T15:40:58.947Z,44.32
2023-03-07T15:43:26.669Z,44.30
2023-03-07T15:46:07.298Z,45.87
2023-03-07T15:48:38.752Z,48.22
2023-03-07T15:51:06.747Z,50.95
2023-03-07T15:53:37.805Z,52.62
2023-03-07T15:56:23.645Z,53.92
2023-03-07T15:58:50.405Z,55.33
2023-03-07T16:01:21.809Z,56.16
2023-03-07T16:04:06.571Z,57.76
2023-03-07T16:06:44.170Z,59.26
2023-03-07T16:09:15.436Z,59.89
2023-03-07T16:11:42.270Z,60.00
2023-03-07T16:14:24.860Z,61.70
2023-03-07T16:16:53.279Z,62.47
2023-03-07T16:19:19.938Z,63.24
2023-03-07T16:21:46.600Z,62.95
2023-03-07T16:24:13.320Z,64.47
2023-03-07T16:26:40.231Z,64.40
2023-03-07T16:29:06.877Z,66.03
2023-03-07T16:31:33.555Z,66.97
2023-03-07T16:34:00.356Z,66.80
2023-03-07T16:36:27.007Z,66.22
2023-03-07T16:38:53.865Z,67.27
2023-03-07T16:41:21.174Z,67.39
2023-03-07T16:43:53.291Z,67.76
2023-03-07T16:46:20.038Z,68.16
2023-03-07T16:48:46.741Z,67.91
2023-03-07T16:51:18.056Z,67.87
2023-03-07T16:53:48.293Z,69.27
2023-03-07T16:56:41.810Z,69.20
2023-03-07T16:59:12.761Z,69.38
2023-03-07T17:01:39.578Z,69.94
2023-03-07T17:04:06.241Z,69.91
2023-03-07T17:06:39.208Z,70.17
2023-03-07T17:09:08.204Z,69.97
2023-03-07T17:11:34.977Z,69.63
2023-03-07T17:14:06.299Z,68.66
2023-03-07T17:16:33.585Z,69.11
2023-03-07T17:19:00.227Z,68.94
2023-03-07T17:21:26.857Z,68.64
2023-03-07T17:23:53.699Z,68.41
2023-03-07T17:26:34.447Z,68.65
2023-03-07T17:29:02.638Z,68.31
2023-03-07T17:31:29.326Z,69.04
2023-03-07T17:33:56.024Z,68.80
2023-03-07T17:36:22.657Z,67.73
2023-03-07T17:38:49.299Z,68.26
2023-03-07T17:41:15.956Z,68.24
2023-03-07T17:43:42.624Z,69.66
2023-03-07T17:46:10.212Z,70.70
2023-03-07T17:48:36.880Z,71.30
2023-03-07T17:51:12.187Z,71.64
2023-03-07T17:53:38.985Z,71.51
2023-03-07T17:56:07.316Z,70.96
2023-03-07T17:58:34.025Z,69.77
2023-03-07T18:01:00.718Z,70.11
2023-03-07T18:03:27.333Z,69.76
2023-03-07T18:05:54.015Z,69.82
2023-03-07T18:08:20.750Z,69.90
2023-03-07T18:10:47.373Z,71.07
2023-03-07T18:13:14.023Z,70.75
2023-03-07T18:15:40.672Z,69.32
2023-03-07T18:18:07.308Z,70.36
2023-03-07T18:20:33.972Z,70.96
2023-03-07T18:23:00.619Z,69.75
2023-03-07T18:25:27.299Z,69.53
2023-03-07T18:27:53.946Z,69.64
2023-03-07T18:30:20.757Z,69.21
2023-03-07T18:32:47.489Z,70.04
2023-03-07T18:35:14.202Z,69.67
2023-03-07T18:37:41.249Z,69.48
2023-03-07T18:40:09.338Z,69.47
2023-03-07T18:42:36.043Z,70.19
2023-03-07T18:45:02.692Z,70.06
2023-03-07T18:47:29.334Z,70.12
2023-03-07T18:49:55.987Z,70.13
2023-03-07T18:52:22.599Z,69.94
2023-03-07T18:54:49.259Z,70.34
2023-03-07T18:57:15.901Z,70.78
2023-03-07T18:59:42.611Z,69.60
2023-03-07T19:02:09.778Z,69.48
2023-03-07T19:04:36.572Z,68.95
2023-03-07T19:07:03.232Z,69.50
2023-03-07T19:09:29.910Z,70.16
2023-03-07T19:11:56.576Z,69.79
2023-03-07T19:14:23.200Z,69.99
2023-03-07T19:16:49.864Z,69.84
2023-03-07T19:19:16.532Z,69.42
2023-03-07T19:21:43.183Z,70.36
2023-03-07T19:24:09.898Z,69.39
2023-03-07T19:26:36.524Z,70.10
2023-03-07T19:29:03.314Z,69.94
2023-03-07T19:31:30.857Z,69.67
2023-03-07T19:33:57.865Z,70.46
2023-03-07T19:36:27.322Z,70.34
2023-03-07T19:38:54.926Z,70.55
2023-03-07T19:41:22.719Z,68.97
2023-03-07T19:43:49.374Z,67.52
2023-03-07T19:46:17.005Z,67.38
2023-03-07T19:48:43.672Z,64.90
2023-03-07T19:51:28.067Z,65.74
2023-03-07T19:53:57.300Z,66.28
2023-03-07T19:56:28.270Z,67.31
2023-03-07T19:58:55.487Z,66.41
2023-03-07T20:01:22.309Z,65.74
2023-03-07T20:03:48.938Z,66.32
2023-03-07T20:06:19.661Z,66.15
2023-03-07T20:08:52.119Z,66.50
2023-03-07T20:11:25.038Z,67.52
2023-03-07T20:13:53.830Z,67.25
2023-03-07T20:16:20.594Z,66.97
2023-03-07T20:18:50.800Z,67.38
2023-03-07T20:21:17.904Z,66.94
2023-03-07T20:23:45.064Z,65.98
2023-03-07T20:26:15.729Z,64.77
2023-03-07T20:28:42.428Z,64.81
2023-03-07T20:31:09.304Z,64.54
2023-03-07T20:33:36.733Z,65.03
2023-03-07T20:36:09.276Z,65.07
2023-03-07T20:38:36.646Z,65.51
2023-03-07T20:41:04.829Z,65.33
2023-03-07T20:43:31.884Z,65.17
2023-03-07T20:46:02.888Z,65.67
2023-03-07T20:48:29.640Z,65.21
2023-03-07T20:50:56.273Z,65.21
2023-03-07T20:53:22.906Z,64.03
2023-03-07T20:55:49.891Z,64.61
2023-03-07T20:58:16.521Z,63.75
2023-03-07T21:00:43.176Z,63.87
2023-03-07T21:03:09.832Z,63.81
2023-03-07T21:05:36.508Z,64.18
2023-03-07T21:08:03.138Z,64.16
2023-03-07T21:10:29.825Z,63.35
2023-03-07T21:12:56.481Z,63.02
2023-03-07T21:15:23.267Z,62.52
2023-03-07T21:17:49.884Z,63.90
2023-03-07T21:20:16.745Z,62.97
2023-03-07T21:22:43.393Z,63.24
2023-03-07T21:25:10.103Z,63.31
2023-03-07T21:27:36.798Z,64.79
2023-03-07T21:30:03.579Z,65.09
2023-03-07T21:32:30.243Z,65.32
2023-03-07T21:34:57.099Z,66.05
2023-03-07T21:37:23.721Z,65.21
2023-03-07T21:39:50.351Z,65.10
2023-03-07T21:42:17.035Z,64.26
2023-03-07T21:44:43.713Z,64.34
2023-03-07T21:47:10.332Z,64.32
2023-03-07T21:49:36.988Z,63.88
2023-03-07T21:52:03.635Z,63.89
2023-03-07T21:54:30.306Z,64.13
2023-03-07T21:56:56.956Z,64.38
2023-03-07T21:59:23.645Z,64.19
2023-03-07T22:01:50.284Z,63.89
2023-03-07T22:04:16.944Z,64.09
2023-03-07T22:06:43.571Z,64.28
2023-03-07T22:09:10.241Z,63.81
2023-03-07T22:11:36.945Z,62.96
2023-03-07T22:14:03.590Z,62.48
2023-03-07T22:16:30.232Z,63.08
2023-03-07T22:18:56.984Z,64.19
2023-03-07T22:21:23.763Z,64.34
2023-03-07T22:23:50.401Z,65.05
2023-03-07T22:26:17.060Z,65.57
2023-03-07T22:28:43.716Z,66.30
2023-03-07T22:31:11.573Z,66.54
2023-03-07T22:33:38.323Z,66.74
2023-03-07T22:36:05.773Z,66.66
2023-03-07T22:38:32.479Z,66.51
2023-03-07T22:41:02.477Z,67.29
2023-03-07T22:43:31.309Z,67.44
2023-03-07T22:45:57.987Z,66.50
2023-03-07T22:48:24.668Z,64.19
2023-03-07T22:50:51.402Z,64.18
2023-03-07T22:53:18.072Z,63.28
2023-03-07T22:55:45.623Z,62.77
2023-03-07T22:58:12.335Z,62.02
2023-03-07T23:00:42.894Z,62.17
2023-03-07T23:03:09.944Z,62.05
2023-03-07T23:05:36.610Z,61.81
2023-03-07T23:08:03.315Z,61.51
2023-03-07T23:10:30.157Z,60.43
2023-03-07T23:12:56.960Z,60.91
2023-03-07T23:15:23.773Z,60.74
2023-03-07T23:17:50.415Z,60.34
2023-03-07T23:20:17.071Z,60.58
2023-03-07T23:22:43.767Z,60.00
2023-03-07T23:25:10.449Z,59.57
2023-03-07T23:27:37.143Z,59.61
2023-03-07T23:30:05.775Z,60.50
2023-03-07T23:32:32.570Z,60.76
2023-03-07T23:34:59.322Z,61.38
2023-03-07T23:37:25.964Z,61.16
2023-03-07T23:39:52.602Z,61.40
2023-03-07T23:42:19.265Z,61.54
2023-03-07T23:44:48.413Z,61.57
2023-03-07T23:47:15.080Z,61.79
2023-03-07T23:49:41.727Z,62.24
2023-03-07T23:52:08.626Z,61.93
2023-03-07T23:54:35.255Z,61.62
2023-03-07T23:57:01.865Z,60.89
2023-03-07T23:59:28.487Z,60.65
